SWA668 KPHL-KSTL
Flight info
| Callsign | SWA668 |
|---|---|
| Flight time | N/A |
| Altitude | 38000 |
| Route | MXE PENSY J110 VHP AARCH2 |
| Aircraft | B738/M-SADE2E3GIJ4RWZ/LB1D1 |
Departure
| Time | 2026-05-07 23:53 |
|---|---|
| Airport | Philadelphia International Airport (KPHL) |
Arrival
| Time | N/A |
|---|---|
| Airport | St. Louis Lambert International Airport (KSTL) |
| Time | Latitude | Longitude | Altitude | Speed | Heading |
|---|---|---|---|---|---|
| 2026-05-07 23:06 | 39.87714 | -75.23616 | 24 ft | 0 kts | 334° |
| 2026-05-07 23:41 | 39.87706 | -75.23611 | 30 ft | 4 kts | 334° |
| 2026-05-07 23:41 | 39.87687 | -75.23599 | 28 ft | 4 kts | 335° |
| 2026-05-07 23:41 | 39.87663 | -75.23585 | 24 ft | 4 kts | 338° |
| 2026-05-07 23:42 | 39.87638 | -75.23573 | 24 ft | 4 kts | 343° |
| 2026-05-07 23:42 | 39.87611 | -75.23565 | 24 ft | 4 kts | 356° |
| 2026-05-07 23:42 | 39.87590 | -75.23567 | 24 ft | 0 kts | 19° |
| 2026-05-07 23:46 | 39.87591 | -75.23567 | 29 ft | 1 kts | 19° |
| 2026-05-07 23:46 | 39.87632 | -75.23549 | 24 ft | 11 kts | 18° |
| 2026-05-07 23:46 | 39.87709 | -75.23515 | 24 ft | 12 kts | 19° |
| 2026-05-07 23:47 | 39.87785 | -75.23480 | 29 ft | 11 kts | 18° |
| 2026-05-07 23:47 | 39.87846 | -75.23443 | 27 ft | 6 kts | 48° |
| 2026-05-07 23:47 | 39.87849 | -75.23431 | 24 ft | 0 kts | 83° |
| 2026-05-07 23:47 | 39.87847 | -75.23429 | 24 ft | 1 kts | 112° |
| 2026-05-07 23:48 | 39.87800 | -75.23401 | 24 ft | 15 kts | 158° |
| 2026-05-07 23:48 | 39.87673 | -75.23344 | 28 ft | 20 kts | 160° |
| 2026-05-07 23:48 | 39.87545 | -75.23283 | 28 ft | 20 kts | 160° |
| 2026-05-07 23:48 | 39.87421 | -75.23221 | 24 ft | 19 kts | 158° |
| 2026-05-07 23:49 | 39.87317 | -75.23170 | 28 ft | 13 kts | 160° |
| 2026-05-07 23:49 | 39.87232 | -75.23128 | 24 ft | 13 kts | 158° |
| 2026-05-07 23:49 | 39.87151 | -75.23109 | 26 ft | 12 kts | 212° |
| 2026-05-07 23:49 | 39.87094 | -75.23188 | 24 ft | 12 kts | 221° |
| 2026-05-07 23:50 | 39.87047 | -75.23278 | 24 ft | 12 kts | 245° |
| 2026-05-07 23:50 | 39.87021 | -75.23375 | 28 ft | 8 kts | 253° |
| 2026-05-07 23:50 | 39.87006 | -75.23420 | 24 ft | 3 kts | 223° |
| 2026-05-07 23:50 | 39.86997 | -75.23420 | 24 ft | 0 kts | 173° |
| 2026-05-07 23:52 | 39.86995 | -75.23420 | 24 ft | 2 kts | 173° |
| 2026-05-07 23:52 | 39.86942 | -75.23406 | 28 ft | 9 kts | 166° |
| 2026-05-07 23:52 | 39.86896 | -75.23442 | 24 ft | 9 kts | 245° |
| 2026-05-07 23:52 | 39.86860 | -75.23614 | 24 ft | 44 kts | 255° |
| 2026-05-07 23:53 | 39.86727 | -75.24282 | 24 ft | 107 kts | 255° |
| 2026-05-07 23:53 | 39.86489 | -75.25446 | 29 ft | 157 kts | 256° |
| 2026-05-07 23:53 | 39.86211 | -75.26885 | 528 ft | 166 kts | 257° |
| 2026-05-07 23:53 | 39.85929 | -75.28396 | 992 ft | 183 kts | 259° |
| 2026-05-07 23:54 | 39.85966 | -75.30088 | 1503 ft | 192 kts | 284° |
| 2026-05-07 23:54 | 39.86256 | -75.31812 | 2085 ft | 196 kts | 283° |
| 2026-05-07 23:54 | 39.86533 | -75.33556 | 2676 ft | 197 kts | 283° |
| 2026-05-07 23:54 | 39.86821 | -75.35368 | 2936 ft | 216 kts | 283° |
| 2026-05-07 23:55 | 39.87139 | -75.37364 | 3209 ft | 233 kts | 283° |
| 2026-05-07 23:55 | 39.87486 | -75.39542 | 3507 ft | 252 kts | 283° |
| 2026-05-07 23:55 | 39.87844 | -75.41805 | 4180 ft | 257 kts | 283° |
| 2026-05-07 23:55 | 39.88200 | -75.44062 | 4927 ft | 258 kts | 283° |
| 2026-05-07 23:56 | 39.88560 | -75.46360 | 5690 ft | 260 kts | 283° |
| 2026-05-07 23:56 | 39.88926 | -75.48681 | 6504 ft | 263 kts | 283° |
| 2026-05-07 23:56 | 39.89294 | -75.51026 | 7313 ft | 265 kts | 283° |
| 2026-05-07 23:56 | 39.89668 | -75.53401 | 8035 ft | 270 kts | 282° |
| 2026-05-07 23:57 | 39.90046 | -75.55814 | 8793 ft | 273 kts | 282° |
| 2026-05-07 23:57 | 39.90427 | -75.58245 | 9551 ft | 275 kts | 282° |
| 2026-05-07 23:57 | 39.90809 | -75.60682 | 10382 ft | 276 kts | 281° |
| 2026-05-07 23:57 | 39.91204 | -75.63215 | 10726 ft | 295 kts | 279° |
| 2026-05-07 23:58 | 39.91620 | -75.65928 | 10920 ft | 315 kts | 278° |
| 2026-05-07 23:58 | 39.91823 | -75.68826 | 11091 ft | 334 kts | 269° |
| 2026-05-07 23:58 | 39.91763 | -75.71925 | 11338 ft | 349 kts | 267° |
| 2026-05-07 23:58 | 39.91684 | -75.75109 | 11969 ft | 351 kts | 266° |
| 2026-05-07 23:59 | 39.91606 | -75.78271 | 12879 ft | 346 kts | 266° |
| 2026-05-07 23:59 | 39.91539 | -75.81406 | 13593 ft | 347 kts | 266° |
| 2026-05-07 23:59 | 39.91469 | -75.84551 | 14205 ft | 349 kts | 266° |
| 2026-05-07 23:59 | 39.91396 | -75.87696 | 14751 ft | 354 kts | 266° |
| 2026-05-08 00:00 | 39.91321 | -75.90902 | 15343 ft | 355 kts | 266° |
| 2026-05-08 00:00 | 39.91255 | -75.94130 | 15890 ft | 358 kts | 266° |
| 2026-05-08 00:00 | 39.91186 | -75.97372 | 16420 ft | 359 kts | 265° |
| 2026-05-08 00:00 | 39.91117 | -76.00643 | 16960 ft | 361 kts | 265° |
| 2026-05-08 00:01 | 39.91047 | -76.03920 | 17493 ft | 363 kts | 265° |
| 2026-05-08 00:01 | 39.90974 | -76.07217 | 18019 ft | 365 kts | 265° |
| 2026-05-08 00:01 | 39.90900 | -76.10529 | 18546 ft | 367 kts | 265° |
| 2026-05-08 00:01 | 39.90823 | -76.13858 | 19040 ft | 369 kts | 265° |
| 2026-05-08 00:02 | 39.90746 | -76.17203 | 19538 ft | 371 kts | 265° |
| 2026-05-08 00:02 | 39.90784 | -76.20583 | 20001 ft | 374 kts | 269° |
| 2026-05-08 00:02 | 39.90927 | -76.23984 | 20405 ft | 377 kts | 269° |
| 2026-05-08 00:02 | 39.91082 | -76.27363 | 20840 ft | 379 kts | 269° |
| 2026-05-08 00:03 | 39.91240 | -76.30789 | 21305 ft | 380 kts | 269° |
| 2026-05-08 00:03 | 39.91395 | -76.34237 | 21725 ft | 381 kts | 269° |
| 2026-05-08 00:03 | 39.91546 | -76.37697 | 21979 ft | 387 kts | 269° |
| 2026-05-08 00:03 | 39.91694 | -76.41218 | 22248 ft | 391 kts | 269° |
| 2026-05-08 00:04 | 39.91841 | -76.44749 | 22662 ft | 392 kts | 269° |
| 2026-05-08 00:04 | 39.91989 | -76.48303 | 22972 ft | 394 kts | 269° |
| 2026-05-08 00:04 | 39.92135 | -76.51882 | 23297 ft | 397 kts | 270° |
| 2026-05-08 00:04 | 39.92280 | -76.55460 | 23683 ft | 396 kts | 270° |
| 2026-05-08 00:05 | 39.92425 | -76.59066 | 24006 ft | 398 kts | 270° |
| 2026-05-08 00:05 | 39.92570 | -76.62682 | 24306 ft | 400 kts | 270° |
| 2026-05-08 00:05 | 39.92714 | -76.66304 | 24604 ft | 401 kts | 270° |
| 2026-05-08 00:05 | 39.92856 | -76.69936 | 24965 ft | 401 kts | 270° |
| 2026-05-08 00:06 | 39.92998 | -76.73557 | 25339 ft | 400 kts | 270° |
| 2026-05-08 00:06 | 39.93139 | -76.77179 | 25630 ft | 401 kts | 270° |
| 2026-05-08 00:06 | 39.93280 | -76.80822 | 25896 ft | 402 kts | 270° |
| 2026-05-08 00:06 | 39.93419 | -76.84454 | 26179 ft | 402 kts | 270° |
| 2026-05-08 00:07 | 39.93556 | -76.88096 | 26457 ft | 403 kts | 270° |
| 2026-05-08 00:07 | 39.93693 | -76.91709 | 26680 ft | 403 kts | 270° |
| 2026-05-08 00:07 | 39.93832 | -76.95394 | 26993 ft | 401 kts | 270° |
| 2026-05-08 00:07 | 39.93966 | -76.98960 | 27345 ft | 398 kts | 270° |
| 2026-05-08 00:08 | 39.94100 | -77.02554 | 27689 ft | 396 kts | 270° |
| 2026-05-08 00:08 | 39.94231 | -77.06131 | 28051 ft | 393 kts | 270° |
| 2026-05-08 00:08 | 39.94360 | -77.09693 | 28331 ft | 393 kts | 270° |
| 2026-05-08 00:08 | 39.94487 | -77.13240 | 28660 ft | 390 kts | 270° |
| 2026-05-08 00:09 | 39.94611 | -77.16759 | 29024 ft | 387 kts | 270° |
| 2026-05-08 00:09 | 39.94734 | -77.20252 | 29369 ft | 385 kts | 270° |
| 2026-05-08 00:09 | 39.94855 | -77.23727 | 29694 ft | 383 kts | 269° |
| 2026-05-08 00:09 | 39.94975 | -77.27182 | 30016 ft | 381 kts | 269° |
| 2026-05-08 00:10 | 39.95092 | -77.30624 | 30279 ft | 380 kts | 269° |
| 2026-05-08 00:10 | 39.95208 | -77.34060 | 30551 ft | 379 kts | 269° |
| 2026-05-08 00:10 | 39.95323 | -77.37481 | 30817 ft | 378 kts | 269° |
| 2026-05-08 00:10 | 39.95438 | -77.40904 | 31085 ft | 376 kts | 269° |
| 2026-05-08 00:11 | 39.95551 | -77.44304 | 31337 ft | 375 kts | 269° |
| 2026-05-08 00:11 | 39.95661 | -77.47704 | 31565 ft | 374 kts | 269° |
| 2026-05-08 00:11 | 39.95767 | -77.51036 | 31797 ft | 373 kts | 269° |
| 2026-05-08 00:11 | 39.95873 | -77.54427 | 32041 ft | 373 kts | 269° |
| 2026-05-08 00:12 | 39.95979 | -77.57795 | 32292 ft | 371 kts | 269° |
| 2026-05-08 00:12 | 39.96083 | -77.61158 | 32536 ft | 370 kts | 269° |
| 2026-05-08 00:12 | 39.96186 | -77.64500 | 32764 ft | 369 kts | 269° |
| 2026-05-08 00:12 | 39.96288 | -77.67851 | 32983 ft | 368 kts | 269° |
| 2026-05-08 00:13 | 39.96390 | -77.71184 | 33182 ft | 368 kts | 269° |
| 2026-05-08 00:13 | 39.96490 | -77.74521 | 33391 ft | 367 kts | 269° |
| 2026-05-08 00:13 | 39.96589 | -77.77841 | 33589 ft | 366 kts | 269° |
| 2026-05-08 00:13 | 39.96687 | -77.81155 | 33778 ft | 365 kts | 269° |
| 2026-05-08 00:14 | 39.96783 | -77.84466 | 33916 ft | 366 kts | 269° |
| 2026-05-08 00:14 | 39.96879 | -77.87769 | 34130 ft | 364 kts | 269° |
| 2026-05-08 00:14 | 39.96979 | -77.91070 | 34333 ft | 364 kts | 269° |
| 2026-05-08 00:14 | 39.97078 | -77.94330 | 34452 ft | 366 kts | 269° |
| 2026-05-08 00:15 | 39.97176 | -77.97651 | 34603 ft | 366 kts | 269° |
| 2026-05-08 00:15 | 39.97270 | -78.00961 | 34830 ft | 364 kts | 269° |
| 2026-05-08 00:15 | 39.97361 | -78.04261 | 34980 ft | 365 kts | 269° |
| 2026-05-08 00:15 | 39.97451 | -78.07580 | 35086 ft | 366 kts | 269° |
| 2026-05-08 00:16 | 39.97540 | -78.10891 | 35252 ft | 365 kts | 269° |
| 2026-05-08 00:16 | 39.97629 | -78.14198 | 35366 ft | 365 kts | 269° |
| 2026-05-08 00:16 | 39.97775 | -78.19722 | 35532 ft | 367 kts | 269° |
| 2026-05-08 00:17 | 39.97890 | -78.24125 | 35744 ft | 366 kts | 269° |
| 2026-05-08 00:17 | 39.97948 | -78.26375 | 35825 ft | 366 kts | 269° |
| 2026-05-08 00:17 | 39.98116 | -78.32977 | 36070 ft | 366 kts | 269° |
| 2026-05-08 00:18 | 39.98200 | -78.36294 | 36229 ft | 365 kts | 269° |
| 2026-05-08 00:18 | 39.98282 | -78.39611 | 36369 ft | 365 kts | 269° |
| 2026-05-08 00:18 | 39.98362 | -78.42922 | 36518 ft | 365 kts | 269° |
| 2026-05-08 00:18 | 39.98442 | -78.46235 | 36712 ft | 364 kts | 269° |
| 2026-05-08 00:19 | 39.98522 | -78.49523 | 36983 ft | 360 kts | 269° |
| 2026-05-08 00:19 | 39.98599 | -78.52773 | 37311 ft | 356 kts | 269° |
| 2026-05-08 00:19 | 39.98673 | -78.55976 | 37601 ft | 351 kts | 269° |
| 2026-05-08 00:19 | 39.98746 | -78.59151 | 37816 ft | 349 kts | 269° |
| 2026-05-08 00:20 | 39.98887 | -78.65458 | 37902 ft | 351 kts | 269° |
| 2026-05-08 00:20 | 39.99028 | -78.71848 | 37910 ft | 349 kts | 269° |
| 2026-05-08 00:21 | 39.99164 | -78.78098 | 37920 ft | 346 kts | 269° |
| 2026-05-08 00:21 | 39.99296 | -78.84364 | 37935 ft | 344 kts | 269° |
| 2026-05-08 00:22 | 39.99423 | -78.90590 | 37923 ft | 343 kts | 269° |
| 2026-05-08 00:22 | 39.99546 | -78.96810 | 37927 ft | 342 kts | 269° |
| 2026-05-08 00:23 | 39.99666 | -79.03026 | 37929 ft | 343 kts | 269° |
| 2026-05-08 00:23 | 39.99784 | -79.09260 | 37926 ft | 344 kts | 269° |
| 2026-05-08 00:24 | 39.99899 | -79.15513 | 37925 ft | 345 kts | 269° |
| 2026-05-08 00:24 | 40.00010 | -79.21780 | 37937 ft | 346 kts | 269° |
| 2026-05-08 00:25 | 40.00117 | -79.28041 | 37939 ft | 349 kts | 269° |
| 2026-05-08 00:25 | 40.00225 | -79.34396 | 37950 ft | 352 kts | 269° |
| 2026-05-08 00:26 | 40.00329 | -79.40801 | 37953 ft | 355 kts | 269° |
| 2026-05-08 00:26 | 40.00430 | -79.47270 | 37961 ft | 357 kts | 269° |
| 2026-05-08 00:27 | 40.00525 | -79.53769 | 37957 ft | 359 kts | 269° |
| 2026-05-08 00:27 | 40.00619 | -79.60300 | 37955 ft | 360 kts | 269° |
| 2026-05-08 00:28 | 40.00709 | -79.66787 | 37939 ft | 353 kts | 269° |
| 2026-05-08 00:28 | 40.00792 | -79.73084 | 37941 ft | 348 kts | 269° |
| 2026-05-08 00:29 | 40.00873 | -79.79380 | 37960 ft | 346 kts | 269° |